Station info - map view · info · telemetry · weather · raw · status · beacons · messages · bulletins · browse · moving · my account
Callsign, ship name or locator: Clear       
It is possible to search using wildcards (*?) after a prefix. Example: OH*
APRS station IZ2DMV - show graphs
Map loading...
Comment: Der Totengräber! {UIV32}
Last status: DX: IW5CBL-15 44.28.25N 9.51.90E 115,2km 157° 21:16
Location: 45°25.58' N 9°17.91' E - locator JN45PK52TH - show map - static map
4.7 miles Northwest bearing 322° from Dresano, Province of Milan, Lombardy, Italy [?]
5.4 miles Northwest bearing 334° from Vizzolo Predabissi, Province of Milan, Lombardy, Italy
5.9 miles Southeast bearing 116° from Milan, Province of Milan, Lombardy, Italy
72.6 miles North bearing 14° from Genova, Province of Genoa, Liguria, Italy
Last position: 2018-12-15 15:52:50 EST (24m8s ago)
2018-12-15 21:52:50 CET local time at Dresano, Italy [?]
Device: Roger Barker, G4IDE: UI-View32 (software, Windows)
Last path: IZ2DMV>APU25N via WIDE2-2,qAR,IR2UFW (good)
Positions stored: 152
Packet rate: 863 seconds between packets on average during 41403 seconds.
Other SSIDs: IZ2DMV-2 IZ2DMV-3
Stations near current position of IZ2DMV - show more
callsign distance last heard - EST      callsign distance last heard - EST
IU2IZX-Y0.7 miles 345°2018-11-18 11:03:04 IR2UGD2.3 miles 198°2018-12-15 16:02:07
IU2GZZ2.6 miles 92°2018-12-01 11:28:10 IK2OFR-H12.6 miles 282°2018-12-10 12:01:36
IU2GZZ-152.7 miles 83°2018-12-15 11:43:59 IK2OFR-13.1 miles 224°2018-12-10 03:24:52
IK2SYK3.2 miles 309°2018-11-25 12:17:48 IK2SYK-13.2 miles 309°2018-11-25 12:09:03
IK2ANE-133.4 miles 313°2018-12-09 10:02:29 IK2ANE-13.4 miles 313°2018-12-14 05:52:38
IU2GZZ-53.7 miles 89°2018-11-22 14:08:27 IK2XRO-103.9 miles 74°2018-12-15 15:56:33
IU2IRW-H14.2 miles 179°2018-11-27 06:01:00 IU2KZI-94.4 miles 279°2018-12-02 06:03:58
IW2ECM-H24.5 miles 310°2018-12-15 16:00:22 I2AMH-114.6 miles 243°2018-11-18 13:32:44
IZ2MHO4.7 miles 296°2018-11-26 15:43:14 IZ2ZRJ-94.7 miles 244°2018-11-28 06:34:31
IZ2OAV-54.9 miles 300°2018-12-11 07:52:54 NO4YOU-i4.9 miles 281°2018-12-14 03:02:23
Stations which heard IZ2DMV directly on radio –
callsign pkts first heard - EST last heard longest (tx => rx) longest at - EST
IR1AO 2 2018-12-15 13:22:50 2018-12-15 14:22:49 JN45PK > JN35XO 64.8 miles 281° 2018-12-15 14:22:49
IK2XDE-6 3 2018-12-15 08:52:50 2018-12-15 11:52:50 JN45PK > JN45MQ 21.6 miles 331° 2018-12-15 11:52:50
IR2AO 7 2018-12-15 04:22:47 2018-12-15 12:52:48 JN45PK > JN45PM 7.3 miles 13° 2018-12-15 12:52:48
IR2UBX-11 12 2018-12-15 04:52:54 2018-12-15 15:52:58 JN45PK > JN45MQ 22.4 miles 326° 2018-12-15 15:52:58
IK2CHZ-11 3 2018-12-15 04:23:23 2018-12-15 09:23:26 JN45PK > JN45UI 19.2 miles 103° 2018-12-15 09:23:26
IR2BZ 17 2018-12-15 04:22:47 2018-12-15 15:52:50 JN45PK > JN45XO 34.0 miles 71° 2018-12-15 15:52:50
IW2HUZ-11 1 2018-12-15 08:52:50 2018-12-15 08:52:50 JN45PK > JN45MU 32.8 miles 340° 2018-12-15 08:52:50
IR2S 7 2018-12-15 05:52:49 2018-12-15 14:22:48 JN45PK > JN55DQ 49.6 miles 70° 2018-12-15 14:22:48
IR2BW 9 2018-12-15 05:22:50 2018-12-15 15:52:50 JN45PK > JN55DN 48.4 miles 77° 2018-12-15 15:52:50
IR2DF 1 2018-12-15 14:22:48 2018-12-15 14:22:48 JN45PK > JN55AS 41.7 miles 56° 2018-12-15 14:22:48
IW5CBL-15 21 2018-12-15 04:22:48 2018-12-15 15:52:52 JN45PK > JN44WL 71.5 miles 157° 2018-12-15 15:52:52
IR2UFW 6 2018-12-15 05:52:49 2018-12-15 15:52:50 JN45PK > JN45LI 15.0 miles 256° 2018-12-15 15:52:50
IZ1XBB-1 3 2018-12-15 04:22:49 2018-12-15 13:22:53 JN45PK > JN44KV 42.8 miles 209° 2018-12-15 13:22:53
IR2BY 14 2018-12-15 04:22:47 2018-12-15 14:52:49 JN45PK > JN55BQ 42.7 miles 63° 2018-12-15 14:52:49
IR2UCL 3 2018-12-15 07:22:50 2018-12-15 10:22:48 JN45PK > JN45UP 24.2 miles 50° 2018-12-15 10:22:48
IU2GOH 2 2018-12-15 04:22:47 2018-12-15 04:52:49 JN45PK > JN55BL 40.4 miles 85° 2018-12-15 04:52:49
IR2DQ 1 2018-12-15 04:52:50 2018-12-15 04:52:50 JN45PK > JN55AD 38.8 miles 117° 2018-12-15 04:52:50
IZ2QYZ-10 2 2018-12-15 11:22:59 2018-12-15 14:52:58 JN45PK > JN45NJ 6.9 miles 251° 2018-12-15 14:52:58
IZ1TMF 2 2018-12-15 05:22:48 2018-12-15 10:22:48 JN45PK > JN35PA 102.5 miles 255° 2018-12-15 10:22:48
IR2AL 5 2018-12-15 04:52:49 2018-12-15 13:52:50 JN45PK > JN45OL 6.2 miles 311° 2018-12-15 13:52:50
HB9DD-1 8 2018-12-15 04:52:49 2018-12-15 15:22:50 JN45PK > JN46LA 45.4 miles 338° 2018-12-15 15:22:50
IW2GOB-12 18 2018-12-15 04:53:03 2018-12-15 15:52:51 JN45PK > JN45SH 13.9 miles 129° 2018-12-15 15:52:51
IR2BP 22 2018-12-15 04:22:47 2018-12-15 15:52:50 JN45PK > JN55DN 48.5 miles 80° 2018-12-15 15:52:50

Only position packets which were originated by the station are shown here. The range statistics show some extra long hops, because some digipeaters do not correctly add themselves to the digipeater path. Please check the raw packets.
About this site
This page shows real-time information collected from the Automatic Position Reporting System Internet network (APRS-IS). APRS is used by amateur (ham) radio operators to transmit real-time position information, weather data, telemetry and messages over the radio. A vehicle equipped with a GPS receiver, a VHF transmitter or HF transceiver and a small computer device called a tracker transmits it's location, speed and course in a small data packet, which is then received by a nearby iGate receiving site which forwards the packet on the Internet. Systems connected to the Internet can send information on the APRS-IS without a radio transmitter, or collect and display information transmitted anywhere in the world.
FAQ · Blog · Discussion group · Linking to aprs.fi · AIS sites · Service status · Database statistics · Advertising on aprs.fi · Technical details · API · Change log · Planned changes · Credits and thanks · Terms Of Service · iPhone/iPad APRS